sensor_id;sensor_type;location;lat;lon;timestamp;P1;durP1;ratioP1;P2;durP2;ratioP2
53293;SDS011;39181;53.440;5.644;2023-03-26T00:01:29;25.85;;;3.05;;
53293;SDS011;39181;53.440;5.644;2023-03-26T00:03:57;15.50;;;2.00;;
53293;SDS011;39181;53.440;5.644;2023-03-26T00:06:24;18.20;;;2.00;;
53293;SDS011;39181;53.440;5.644;2023-03-26T00:08:52;19.83;;;1.98;;
53293;SDS011;39181;53.440;5.644;2023-03-26T00:11:20;15.60;;;1.73;;
53293;SDS011;39181;53.440;5.644;2023-03-26T00:13:48;16.15;;;1.98;;
53293;SDS011;39181;53.440;5.644;2023-03-26T00:16:15;12.95;;;2.05;;
53293;SDS011;39181;53.440;5.644;2023-03-26T00:18:42;11.65;;;1.67;;
53293;SDS011;39181;53.440;5.644;2023-03-26T00:21:10;15.15;;;2.10;;
53293;SDS011;39181;53.440;5.644;2023-03-26T00:23:39;12.90;;;2.45;;
53293;SDS011;39181;53.440;5.644;2023-03-26T00:26:05;19.25;;;2.92;;
53293;SDS011;39181;53.440;5.644;2023-03-26T00:28:39;13.32;;;1.98;;
53293;SDS011;39181;53.440;5.644;2023-03-26T00:31:07;17.60;;;1.88;;
53293;SDS011;39181;53.440;5.644;2023-03-26T00:33:35;16.58;;;2.90;;
53293;SDS011;39181;53.440;5.644;2023-03-26T00:36:03;22.15;;;2.08;;
53293;SDS011;39181;53.440;5.644;2023-03-26T00:38:30;16.98;;;2.47;;
53293;SDS011;39181;53.440;5.644;2023-03-26T00:41:00;15.38;;;1.85;;
53293;SDS011;39181;53.440;5.644;2023-03-26T00:43:30;20.45;;;2.22;;
53293;SDS011;39181;53.440;5.644;2023-03-26T00:45:57;15.20;;;1.65;;
53293;SDS011;39181;53.440;5.644;2023-03-26T00:48:23;15.98;;;1.73;;
53293;SDS011;39181;53.440;5.644;2023-03-26T00:50:49;15.70;;;2.00;;
53293;SDS011;39181;53.440;5.644;2023-03-26T00:53:15;14.32;;;1.95;;
53293;SDS011;39181;53.440;5.644;2023-03-26T00:55:44;14.20;;;1.80;;
53293;SDS011;39181;53.440;5.644;2023-03-26T00:58:11;26.65;;;3.15;;
53293;SDS011;39181;53.440;5.644;2023-03-26T01:00:38;18.02;;;1.88;;
53293;SDS011;39181;53.440;5.644;2023-03-26T01:03:09;16.02;;;2.63;;
53293;SDS011;39181;53.440;5.644;2023-03-26T01:05:39;10.80;;;1.85;;
53293;SDS011;39181;53.440;5.644;2023-03-26T01:10:56;17.92;;;2.60;;
53293;SDS011;39181;53.440;5.644;2023-03-26T01:13:33;12.90;;;2.72;;
53293;SDS011;39181;53.440;5.644;2023-03-26T01:16:02;15.13;;;3.03;;
53293;SDS011;39181;53.440;5.644;2023-03-26T01:18:33;10.97;;;2.23;;
53293;SDS011;39181;53.440;5.644;2023-03-26T01:21:05;17.30;;;2.42;;
53293;SDS011;39181;53.440;5.644;2023-03-26T01:23:41;17.05;;;2.78;;
53293;SDS011;39181;53.440;5.644;2023-03-26T01:28:42;20.33;;;2.08;;
53293;SDS011;39181;53.440;5.644;2023-03-26T01:31:14;26.23;;;2.97;;
53293;SDS011;39181;53.440;5.644;2023-03-26T01:34:36;16.85;;;1.98;;
53293;SDS011;39181;53.440;5.644;2023-03-26T01:36:44;20.02;;;2.63;;
53293;SDS011;39181;53.440;5.644;2023-03-26T01:41:57;22.30;;;2.75;;
53293;SDS011;39181;53.440;5.644;2023-03-26T01:44:43;16.42;;;2.20;;
53293;SDS011;39181;53.440;5.644;2023-03-26T01:47:14;13.68;;;2.03;;
53293;SDS011;39181;53.440;5.644;2023-03-26T01:49:41;19.50;;;3.30;;
53293;SDS011;39181;53.440;5.644;2023-03-26T01:52:40;17.45;;;3.13;;
53293;SDS011;39181;53.440;5.644;2023-03-26T01:54:58;19.20;;;2.53;;
53293;SDS011;39181;53.440;5.644;2023-03-26T02:00:14;20.52;;;2.63;;
53293;SDS011;39181;53.440;5.644;2023-03-26T02:03:00;20.73;;;2.75;;
53293;SDS011;39181;53.440;5.644;2023-03-26T02:05:33;26.02;;;3.17;;
53293;SDS011;39181;53.440;5.644;2023-03-26T02:08:16;27.42;;;3.05;;
53293;SDS011;39181;53.440;5.644;2023-03-26T02:10:56;20.60;;;2.78;;
53293;SDS011;39181;53.440;5.644;2023-03-26T02:13:23;18.30;;;4.32;;
53293;SDS011;39181;53.440;5.644;2023-03-26T02:15:57;24.02;;;3.80;;
53293;SDS011;39181;53.440;5.644;2023-03-26T02:18:24;30.33;;;2.38;;
53293;SDS011;39181;53.440;5.644;2023-03-26T02:21:08;17.63;;;1.95;;
53293;SDS011;39181;53.440;5.644;2023-03-26T02:23:37;17.88;;;2.78;;
53293;SDS011;39181;53.440;5.644;2023-03-26T02:26:11;21.25;;;1.88;;
53293;SDS011;39181;53.440;5.644;2023-03-26T02:28:38;19.55;;;2.08;;
53293;SDS011;39181;53.440;5.644;2023-03-26T02:31:05;21.63;;;2.22;;
53293;SDS011;39181;53.440;5.644;2023-03-26T02:33:33;20.10;;;1.80;;
53293;SDS011;39181;53.440;5.644;2023-03-26T02:35:59;16.88;;;2.35;;
53293;SDS011;39181;53.440;5.644;2023-03-26T02:38:26;14.13;;;2.47;;
53293;SDS011;39181;53.440;5.644;2023-03-26T02:40:53;20.98;;;2.22;;
53293;SDS011;39181;53.440;5.644;2023-03-26T02:43:19;21.02;;;3.67;;
53293;SDS011;39181;53.440;5.644;2023-03-26T02:45:46;17.25;;;2.40;;
53293;SDS011;39181;53.440;5.644;2023-03-26T02:48:12;14.07;;;2.33;;
53293;SDS011;39181;53.440;5.644;2023-03-26T02:50:39;16.27;;;2.35;;
53293;SDS011;39181;53.440;5.644;2023-03-26T02:53:05;19.70;;;2.45;;
53293;SDS011;39181;53.440;5.644;2023-03-26T02:55:30;19.98;;;2.58;;
53293;SDS011;39181;53.440;5.644;2023-03-26T02:57:56;25.42;;;3.53;;
53293;SDS011;39181;53.440;5.644;2023-03-26T03:00:21;25.15;;;2.78;;
53293;SDS011;39181;53.440;5.644;2023-03-26T03:02:47;29.10;;;2.78;;
53293;SDS011;39181;53.440;5.644;2023-03-26T03:05:13;21.80;;;3.47;;
53293;SDS011;39181;53.440;5.644;2023-03-26T03:07:39;21.10;;;2.45;;
53293;SDS011;39181;53.440;5.644;2023-03-26T03:10:05;15.40;;;2.25;;
53293;SDS011;39181;53.440;5.644;2023-03-26T03:12:33;24.42;;;2.72;;
53293;SDS011;39181;53.440;5.644;2023-03-26T03:14:59;26.27;;;2.38;;
53293;SDS011;39181;53.440;5.644;2023-03-26T03:17:24;16.50;;;2.38;;
53293;SDS011;39181;53.440;5.644;2023-03-26T03:19:50;23.55;;;2.65;;
53293;SDS011;39181;53.440;5.644;2023-03-26T03:22:16;18.98;;;3.00;;
53293;SDS011;39181;53.440;5.644;2023-03-26T03:24:42;22.80;;;3.33;;
53293;SDS011;39181;53.440;5.644;2023-03-26T03:27:08;18.50;;;3.00;;
53293;SDS011;39181;53.440;5.644;2023-03-26T03:29:34;19.65;;;2.95;;
53293;SDS011;39181;53.440;5.644;2023-03-26T03:32:00;23.30;;;3.05;;
53293;SDS011;39181;53.440;5.644;2023-03-26T03:34:25;13.25;;;2.08;;
53293;SDS011;39181;53.440;5.644;2023-03-26T03:36:51;27.60;;;2.58;;
53293;SDS011;39181;53.440;5.644;2023-03-26T03:39:17;26.08;;;2.58;;
53293;SDS011;39181;53.440;5.644;2023-03-26T03:41:42;26.70;;;2.92;;
53293;SDS011;39181;53.440;5.644;2023-03-26T03:44:08;20.13;;;2.25;;
53293;SDS011;39181;53.440;5.644;2023-03-26T03:46:33;17.55;;;2.70;;
53293;SDS011;39181;53.440;5.644;2023-03-26T03:49:00;23.38;;;3.03;;
53293;SDS011;39181;53.440;5.644;2023-03-26T03:51:25;21.73;;;2.83;;
53293;SDS011;39181;53.440;5.644;2023-03-26T03:53:51;19.58;;;2.30;;
53293;SDS011;39181;53.440;5.644;2023-03-26T03:56:17;14.73;;;2.35;;
53293;SDS011;39181;53.440;5.644;2023-03-26T03:58:43;20.35;;;2.47;;
53293;SDS011;39181;53.440;5.644;2023-03-26T04:01:10;20.52;;;3.20;;
53293;SDS011;39181;53.440;5.644;2023-03-26T04:03:37;21.95;;;2.72;;
53293;SDS011;39181;53.440;5.644;2023-03-26T04:06:04;19.52;;;3.15;;
53293;SDS011;39181;53.440;5.644;2023-03-26T04:08:30;19.30;;;1.98;;
53293;SDS011;39181;53.440;5.644;2023-03-26T04:10:57;24.70;;;3.08;;
53293;SDS011;39181;53.440;5.644;2023-03-26T04:13:23;17.80;;;2.72;;
53293;SDS011;39181;53.440;5.644;2023-03-26T04:15:48;16.55;;;2.28;;
53293;SDS011;39181;53.440;5.644;2023-03-26T04:18:14;17.88;;;2.25;;
53293;SDS011;39181;53.440;5.644;2023-03-26T04:20:40;19.67;;;2.13;;
53293;SDS011;39181;53.440;5.644;2023-03-26T04:23:11;18.27;;;2.17;;
53293;SDS011;39181;53.440;5.644;2023-03-26T04:25:38;21.23;;;2.55;;
53293;SDS011;39181;53.440;5.644;2023-03-26T04:28:12;19.98;;;2.40;;
53293;SDS011;39181;53.440;5.644;2023-03-26T04:30:50;10.30;;;2.55;;
53293;SDS011;39181;53.440;5.644;2023-03-26T04:33:17;11.60;;;1.67;;
53293;SDS011;39181;53.440;5.644;2023-03-26T04:35:45;16.30;;;1.67;;
53293;SDS011;39181;53.440;5.644;2023-03-26T04:38:12;22.70;;;2.00;;
53293;SDS011;39181;53.440;5.644;2023-03-26T04:40:41;21.55;;;2.95;;
53293;SDS011;39181;53.440;5.644;2023-03-26T04:43:12;20.40;;;3.10;;
53293;SDS011;39181;53.440;5.644;2023-03-26T04:45:40;21.23;;;1.95;;
53293;SDS011;39181;53.440;5.644;2023-03-26T04:48:07;20.17;;;2.70;;
53293;SDS011;39181;53.440;5.644;2023-03-26T04:50:38;14.63;;;1.60;;
53293;SDS011;39181;53.440;5.644;2023-03-26T04:53:08;19.15;;;2.83;;
53293;SDS011;39181;53.440;5.644;2023-03-26T04:55:50;20.23;;;2.17;;
53293;SDS011;39181;53.440;5.644;2023-03-26T04:58:21;16.55;;;2.17;;
53293;SDS011;39181;53.440;5.644;2023-03-26T05:00:57;14.95;;;2.03;;
53293;SDS011;39181;53.440;5.644;2023-03-26T05:03:25;19.17;;;1.70;;
53293;SDS011;39181;53.440;5.644;2023-03-26T05:05:59;13.43;;;1.63;;
53293;SDS011;39181;53.440;5.644;2023-03-26T05:08:26;16.15;;;3.35;;
53293;SDS011;39181;53.440;5.644;2023-03-26T05:10:53;22.85;;;3.10;;
53293;SDS011;39181;53.440;5.644;2023-03-26T05:13:20;16.92;;;2.60;;
53293;SDS011;39181;53.440;5.644;2023-03-26T05:15:47;25.25;;;2.60;;
53293;SDS011;39181;53.440;5.644;2023-03-26T05:18:12;20.08;;;2.20;;
53293;SDS011;39181;53.440;5.644;2023-03-26T05:20:38;10.88;;;1.92;;
53293;SDS011;39181;53.440;5.644;2023-03-26T05:23:04;25.35;;;2.38;;
53293;SDS011;39181;53.440;5.644;2023-03-26T05:25:29;23.20;;;2.35;;
53293;SDS011;39181;53.440;5.644;2023-03-26T05:27:55;21.55;;;2.25;;
53293;SDS011;39181;53.440;5.644;2023-03-26T05:30:21;12.85;;;2.50;;
53293;SDS011;39181;53.440;5.644;2023-03-26T05:32:47;32.83;;;4.00;;
53293;SDS011;39181;53.440;5.644;2023-03-26T05:35:13;17.98;;;3.05;;
53293;SDS011;39181;53.440;5.644;2023-03-26T05:37:43;17.73;;;2.30;;
53293;SDS011;39181;53.440;5.644;2023-03-26T05:40:10;16.17;;;2.10;;
53293;SDS011;39181;53.440;5.644;2023-03-26T05:42:38;15.80;;;1.90;;
53293;SDS011;39181;53.440;5.644;2023-03-26T05:45:05;16.80;;;2.40;;
53293;SDS011;39181;53.440;5.644;2023-03-26T05:47:32;15.07;;;2.45;;
53293;SDS011;39181;53.440;5.644;2023-03-26T05:49:58;17.92;;;2.13;;
53293;SDS011;39181;53.440;5.644;2023-03-26T05:52:24;14.77;;;1.90;;
53293;SDS011;39181;53.440;5.644;2023-03-26T05:54:49;15.85;;;2.55;;
53293;SDS011;39181;53.440;5.644;2023-03-26T05:57:15;20.00;;;2.35;;
53293;SDS011;39181;53.440;5.644;2023-03-26T05:59:42;15.43;;;1.55;;
53293;SDS011;39181;53.440;5.644;2023-03-26T06:02:08;9.05;;;1.90;;
53293;SDS011;39181;53.440;5.644;2023-03-26T06:04:35;11.35;;;1.42;;
53293;SDS011;39181;53.440;5.644;2023-03-26T06:07:05;13.75;;;1.98;;
53293;SDS011;39181;53.440;5.644;2023-03-26T06:09:34;7.43;;;1.88;;
53293;SDS011;39181;53.440;5.644;2023-03-26T06:12:02;11.75;;;1.58;;
53293;SDS011;39181;53.440;5.644;2023-03-26T06:14:29;18.25;;;2.58;;
53293;SDS011;39181;53.440;5.644;2023-03-26T06:16:55;11.15;;;2.00;;
53293;SDS011;39181;53.440;5.644;2023-03-26T06:19:20;15.05;;;1.48;;
53293;SDS011;39181;53.440;5.644;2023-03-26T06:21:46;14.43;;;1.95;;
53293;SDS011;39181;53.440;5.644;2023-03-26T06:24:12;12.18;;;1.35;;
53293;SDS011;39181;53.440;5.644;2023-03-26T06:26:40;14.25;;;2.67;;
53293;SDS011;39181;53.440;5.644;2023-03-26T06:29:06;11.73;;;1.40;;
53293;SDS011;39181;53.440;5.644;2023-03-26T06:31:32;11.00;;;1.55;;
53293;SDS011;39181;53.440;5.644;2023-03-26T06:33:58;15.45;;;2.83;;
53293;SDS011;39181;53.440;5.644;2023-03-26T06:36:23;17.40;;;2.58;;
53293;SDS011;39181;53.440;5.644;2023-03-26T06:38:49;11.10;;;1.55;;
53293;SDS011;39181;53.440;5.644;2023-03-26T06:41:15;13.07;;;2.05;;
53293;SDS011;39181;53.440;5.644;2023-03-26T06:43:41;9.40;;;1.23;;
53293;SDS011;39181;53.440;5.644;2023-03-26T06:46:06;13.15;;;1.40;;
53293;SDS011;39181;53.440;5.644;2023-03-26T06:48:32;12.63;;;1.90;;
53293;SDS011;39181;53.440;5.644;2023-03-26T06:50:58;17.75;;;1.80;;
53293;SDS011;39181;53.440;5.644;2023-03-26T06:53:24;18.63;;;1.58;;
53293;SDS011;39181;53.440;5.644;2023-03-26T06:55:51;14.23;;;2.38;;
53293;SDS011;39181;53.440;5.644;2023-03-26T06:58:17;10.98;;;1.45;;
53293;SDS011;39181;53.440;5.644;2023-03-26T07:00:42;13.60;;;1.65;;
53293;SDS011;39181;53.440;5.644;2023-03-26T07:03:08;16.35;;;2.15;;
53293;SDS011;39181;53.440;5.644;2023-03-26T07:05:35;15.38;;;1.60;;
53293;SDS011;39181;53.440;5.644;2023-03-26T07:08:01;20.10;;;2.38;;
53293;SDS011;39181;53.440;5.644;2023-03-26T07:10:27;22.25;;;2.03;;
53293;SDS011;39181;53.440;5.644;2023-03-26T07:12:52;21.20;;;1.95;;
53293;SDS011;39181;53.440;5.644;2023-03-26T07:15:18;21.13;;;2.00;;
53293;SDS011;39181;53.440;5.644;2023-03-26T07:17:43;12.52;;;2.08;;
53293;SDS011;39181;53.440;5.644;2023-03-26T07:20:09;10.85;;;1.60;;
53293;SDS011;39181;53.440;5.644;2023-03-26T07:22:35;13.65;;;1.60;;
53293;SDS011;39181;53.440;5.644;2023-03-26T07:25:01;19.27;;;1.80;;
53293;SDS011;39181;53.440;5.644;2023-03-26T07:32:32;12.25;;;1.90;;
53293;SDS011;39181;53.440;5.644;2023-03-26T07:35:12;7.82;;;1.58;;
53293;SDS011;39181;53.440;5.644;2023-03-26T07:46:12;7.60;;;1.65;;
53293;SDS011;39181;53.440;5.644;2023-03-26T07:48:42;14.52;;;1.58;;
53293;SDS011;39181;53.440;5.644;2023-03-26T07:51:12;11.85;;;1.25;;
53293;SDS011;39181;53.440;5.644;2023-03-26T07:53:38;12.48;;;1.85;;
53293;SDS011;39181;53.440;5.644;2023-03-26T08:01:53;9.30;;;1.33;;
53293;SDS011;39181;53.440;5.644;2023-03-26T08:05:27;20.90;;;1.98;;
53293;SDS011;39181;53.440;5.644;2023-03-26T08:13:25;12.38;;;1.52;;
53293;SDS011;39181;53.440;5.644;2023-03-26T08:16:15;14.90;;;1.45;;
53293;SDS011;39181;53.440;5.644;2023-03-26T08:19:08;10.55;;;1.33;;
53293;SDS011;39181;53.440;5.644;2023-03-26T08:22:12;12.32;;;1.73;;
53293;SDS011;39181;53.440;5.644;2023-03-26T08:30:10;7.80;;;1.25;;
53293;SDS011;39181;53.440;5.644;2023-03-26T08:32:41;16.15;;;1.60;;
53293;SDS011;39181;53.440;5.644;2023-03-26T08:35:12;6.70;;;1.33;;
53293;SDS011;39181;53.440;5.644;2023-03-26T08:37:38;9.90;;;1.50;;
53293;SDS011;39181;53.440;5.644;2023-03-26T08:40:04;12.15;;;1.58;;
53293;SDS011;39181;53.440;5.644;2023-03-26T08:45:54;9.68;;;1.70;;
53293;SDS011;39181;53.440;5.644;2023-03-26T08:57:55;11.13;;;1.58;;
53293;SDS011;39181;53.440;5.644;2023-03-26T09:00:36;13.60;;;1.90;;
53293;SDS011;39181;53.440;5.644;2023-03-26T09:05:50;13.13;;;1.33;;
53293;SDS011;39181;53.440;5.644;2023-03-26T09:08:46;10.20;;;1.35;;
53293;SDS011;39181;53.440;5.644;2023-03-26T09:16:50;9.68;;;1.63;;
53293;SDS011;39181;53.440;5.644;2023-03-26T09:20:44;10.65;;;1.55;;
53293;SDS011;39181;53.440;5.644;2023-03-26T09:23:10;9.02;;;1.17;;
53293;SDS011;39181;53.440;5.644;2023-03-26T09:25:55;14.38;;;1.95;;
53293;SDS011;39181;53.440;5.644;2023-03-26T09:31:44;9.73;;;1.63;;
53293;SDS011;39181;53.440;5.644;2023-03-26T09:34:31;8.45;;;1.20;;
53293;SDS011;39181;53.440;5.644;2023-03-26T09:42:32;15.75;;;2.05;;
53293;SDS011;39181;53.440;5.644;2023-03-26T09:53:28;10.15;;;1.65;;
53293;SDS011;39181;53.440;5.644;2023-03-26T10:10:29;6.82;;;0.95;;
53293;SDS011;39181;53.440;5.644;2023-03-26T10:24:22;8.40;;;1.33;;
53293;SDS011;39181;53.440;5.644;2023-03-26T10:27:05;12.32;;;1.92;;
53293;SDS011;39181;53.440;5.644;2023-03-26T10:35:46;9.98;;;1.27;;
53293;SDS011;39181;53.440;5.644;2023-03-26T10:41:27;8.15;;;1.55;;
53293;SDS011;39181;53.440;5.644;2023-03-26T10:47:23;8.05;;;0.80;;
53293;SDS011;39181;53.440;5.644;2023-03-26T10:52:48;9.30;;;1.05;;
53293;SDS011;39181;53.440;5.644;2023-03-26T10:55:30;9.70;;;0.85;;
53293;SDS011;39181;53.440;5.644;2023-03-26T11:00:32;8.48;;;1.27;;
53293;SDS011;39181;53.440;5.644;2023-03-26T11:08:52;7.40;;;1.23;;
53293;SDS011;39181;53.440;5.644;2023-03-26T11:16:54;5.95;;;1.77;;
53293;SDS011;39181;53.440;5.644;2023-03-26T11:19:57;6.35;;;1.25;;
53293;SDS011;39181;53.440;5.644;2023-03-26T11:22:53;9.95;;;1.30;;
53293;SDS011;39181;53.440;5.644;2023-03-26T11:25:44;14.30;;;1.10;;
53293;SDS011;39181;53.440;5.644;2023-03-26T11:34:12;6.88;;;1.30;;
53293;SDS011;39181;53.440;5.644;2023-03-26T11:36:42;5.78;;;1.27;;
53293;SDS011;39181;53.440;5.644;2023-03-26T11:41:45;7.88;;;1.70;;
53293;SDS011;39181;53.440;5.644;2023-03-26T11:46:51;9.63;;;1.40;;
53293;SDS011;39181;53.440;5.644;2023-03-26T11:49:22;7.03;;;1.33;;
53293;SDS011;39181;53.440;5.644;2023-03-26T11:51:51;9.85;;;1.20;;
53293;SDS011;39181;53.440;5.644;2023-03-26T11:54:19;8.55;;;1.33;;
53293;SDS011;39181;53.440;5.644;2023-03-26T11:56:50;8.25;;;1.85;;
53293;SDS011;39181;53.440;5.644;2023-03-26T11:59:41;11.45;;;1.98;;
53293;SDS011;39181;53.440;5.644;2023-03-26T12:04:39;11.70;;;0.80;;
53293;SDS011;39181;53.440;5.644;2023-03-26T12:07:07;11.68;;;1.77;;
53293;SDS011;39181;53.440;5.644;2023-03-26T12:09:36;9.25;;;0.98;;
53293;SDS011;39181;53.440;5.644;2023-03-26T12:12:12;10.48;;;1.35;;
53293;SDS011;39181;53.440;5.644;2023-03-26T12:14:40;11.13;;;1.17;;
53293;SDS011;39181;53.440;5.644;2023-03-26T12:17:24;9.88;;;1.40;;
53293;SDS011;39181;53.440;5.644;2023-03-26T12:19:56;7.15;;;1.05;;
53293;SDS011;39181;53.440;5.644;2023-03-26T12:22:32;10.95;;;1.10;;
53293;SDS011;39181;53.440;5.644;2023-03-26T12:30:27;10.98;;;1.55;;
53293;SDS011;39181;53.440;5.644;2023-03-26T12:32:56;4.68;;;0.93;;
53293;SDS011;39181;53.440;5.644;2023-03-26T12:35:26;10.88;;;1.05;;
53293;SDS011;39181;53.440;5.644;2023-03-26T12:37:54;5.45;;;1.08;;
53293;SDS011;39181;53.440;5.644;2023-03-26T12:40:43;5.95;;;0.82;;
53293;SDS011;39181;53.440;5.644;2023-03-26T12:46:42;7.10;;;0.85;;
53293;SDS011;39181;53.440;5.644;2023-03-26T12:49:03;8.95;;;0.85;;
53293;SDS011;39181;53.440;5.644;2023-03-26T12:56:47;10.27;;;1.00;;
53293;SDS011;39181;53.440;5.644;2023-03-26T13:21:50;4.97;;;0.90;;
53293;SDS011;39181;53.440;5.644;2023-03-26T13:24:48;6.10;;;0.80;;
53293;SDS011;39181;53.440;5.644;2023-03-26T13:36:16;4.10;;;0.95;;
53293;SDS011;39181;53.440;5.644;2023-03-26T13:39:14;7.97;;;1.38;;
53293;SDS011;39181;53.440;5.644;2023-03-26T13:41:58;11.05;;;1.40;;
53293;SDS011;39181;53.440;5.644;2023-03-26T13:44:41;13.18;;;1.63;;
53293;SDS011;39181;53.440;5.644;2023-03-26T13:47:22;13.32;;;1.27;;
53293;SDS011;39181;53.440;5.644;2023-03-26T13:49:52;4.68;;;0.80;;
53293;SDS011;39181;53.440;5.644;2023-03-26T13:52:25;7.95;;;1.23;;
53293;SDS011;39181;53.440;5.644;2023-03-26T13:55:06;10.00;;;0.80;;
53293;SDS011;39181;53.440;5.644;2023-03-26T14:01:09;7.32;;;1.17;;
53293;SDS011;39181;53.440;5.644;2023-03-26T14:09:33;4.90;;;0.55;;
53293;SDS011;39181;53.440;5.644;2023-03-26T14:14:59;11.02;;;1.13;;
53293;SDS011;39181;53.440;5.644;2023-03-26T14:17:28;11.30;;;1.40;;
53293;SDS011;39181;53.440;5.644;2023-03-26T14:20:12;8.52;;;1.38;;
53293;SDS011;39181;53.440;5.644;2023-03-26T14:23:18;6.22;;;1.00;;
53293;SDS011;39181;53.440;5.644;2023-03-26T14:37:28;13.35;;;1.42;;
53293;SDS011;39181;53.440;5.644;2023-03-26T14:47:47;3.08;;;0.60;;
53293;SDS011;39181;53.440;5.644;2023-03-26T14:50:35;4.95;;;0.60;;
53293;SDS011;39181;53.440;5.644;2023-03-26T14:53:28;5.78;;;0.90;;
53293;SDS011;39181;53.440;5.644;2023-03-26T14:58:54;7.10;;;0.88;;
53293;SDS011;39181;53.440;5.644;2023-03-26T15:01:50;11.68;;;2.10;;
53293;SDS011;39181;53.440;5.644;2023-03-26T15:07:51;6.97;;;1.30;;
53293;SDS011;39181;53.440;5.644;2023-03-26T15:10:48;8.05;;;0.90;;
53293;SDS011;39181;53.440;5.644;2023-03-26T15:24:57;4.57;;;0.90;;
53293;SDS011;39181;53.440;5.644;2023-03-26T15:33:34;9.25;;;1.10;;
53293;SDS011;39181;53.440;5.644;2023-03-26T15:38:58;8.70;;;1.05;;
53293;SDS011;39181;53.440;5.644;2023-03-26T15:44:31;8.43;;;1.35;;
53293;SDS011;39181;53.440;5.644;2023-03-26T15:50:17;19.02;;;2.05;;
53293;SDS011;39181;53.440;5.644;2023-03-26T15:52:58;6.50;;;0.85;;
53293;SDS011;39181;53.440;5.644;2023-03-26T15:56:06;11.40;;;1.35;;
53293;SDS011;39181;53.440;5.644;2023-03-26T16:01:26;6.30;;;0.98;;
53293;SDS011;39181;53.440;5.644;2023-03-26T16:04:28;7.03;;;0.98;;
53293;SDS011;39181;53.440;5.644;2023-03-26T16:10:01;6.10;;;0.95;;
53293;SDS011;39181;53.440;5.644;2023-03-26T16:12:52;9.63;;;1.23;;
53293;SDS011;39181;53.440;5.644;2023-03-26T16:15:37;10.02;;;2.35;;
53293;SDS011;39181;53.440;5.644;2023-03-26T16:21:00;5.25;;;0.98;;
53293;SDS011;39181;53.440;5.644;2023-03-26T16:26:11;11.38;;;1.17;;
53293;SDS011;39181;53.440;5.644;2023-03-26T16:33:52;8.93;;;0.82;;
53293;SDS011;39181;53.440;5.644;2023-03-26T16:36:32;5.30;;;1.08;;
53293;SDS011;39181;53.440;5.644;2023-03-26T16:47:21;11.15;;;1.33;;
53293;SDS011;39181;53.440;5.644;2023-03-26T16:58:21;7.35;;;1.30;;
53293;SDS011;39181;53.440;5.644;2023-03-26T17:01:10;5.68;;;0.57;;
53293;SDS011;39181;53.440;5.644;2023-03-26T17:04:03;8.95;;;0.88;;
53293;SDS011;39181;53.440;5.644;2023-03-26T17:06:56;13.00;;;1.05;;
53293;SDS011;39181;53.440;5.644;2023-03-26T17:09:56;10.23;;;2.50;;
53293;SDS011;39181;53.440;5.644;2023-03-26T17:12:33;4.63;;;0.80;;
53293;SDS011;39181;53.440;5.644;2023-03-26T17:15:18;5.82;;;0.80;;
53293;SDS011;39181;53.440;5.644;2023-03-26T17:20:59;6.82;;;1.00;;
53293;SDS011;39181;53.440;5.644;2023-03-26T17:31:40;6.80;;;0.90;;
53293;SDS011;39181;53.440;5.644;2023-03-26T17:45:00;5.97;;;0.73;;
53293;SDS011;39181;53.440;5.644;2023-03-26T17:47:38;8.18;;;1.25;;
53293;SDS011;39181;53.440;5.644;2023-03-26T17:50:13;12.13;;;1.20;;
53293;SDS011;39181;53.440;5.644;2023-03-26T17:55:22;6.75;;;1.02;;
53293;SDS011;39181;53.440;5.644;2023-03-26T17:57:56;13.55;;;0.75;;
53293;SDS011;39181;53.440;5.644;2023-03-26T18:00:47;5.05;;;0.98;;
53293;SDS011;39181;53.440;5.644;2023-03-26T18:03:21;7.40;;;0.68;;
53293;SDS011;39181;53.440;5.644;2023-03-26T18:05:53;7.18;;;0.55;;
53293;SDS011;39181;53.440;5.644;2023-03-26T18:08:39;8.77;;;0.93;;
53293;SDS011;39181;53.440;5.644;2023-03-26T18:17:12;9.65;;;1.10;;
53293;SDS011;39181;53.440;5.644;2023-03-26T18:19:48;9.60;;;1.00;;
53293;SDS011;39181;53.440;5.644;2023-03-26T18:22:23;5.68;;;1.02;;
53293;SDS011;39181;53.440;5.644;2023-03-26T18:24:53;9.32;;;1.15;;
53293;SDS011;39181;53.440;5.644;2023-03-26T18:27:23;12.27;;;1.38;;
53293;SDS011;39181;53.440;5.644;2023-03-26T18:32:24;10.68;;;1.15;;
53293;SDS011;39181;53.440;5.644;2023-03-26T18:35:10;16.42;;;0.93;;
53293;SDS011;39181;53.440;5.644;2023-03-26T18:37:40;10.65;;;1.00;;
53293;SDS011;39181;53.440;5.644;2023-03-26T18:40:15;5.47;;;0.73;;
53293;SDS011;39181;53.440;5.644;2023-03-26T18:42:47;8.63;;;0.90;;
53293;SDS011;39181;53.440;5.644;2023-03-26T18:47:58;8.93;;;1.20;;
53293;SDS011;39181;53.440;5.644;2023-03-26T18:51:00;7.53;;;0.93;;
53293;SDS011;39181;53.440;5.644;2023-03-26T18:53:29;9.02;;;1.02;;
53293;SDS011;39181;53.440;5.644;2023-03-26T18:56:16;15.02;;;1.23;;
53293;SDS011;39181;53.440;5.644;2023-03-26T18:59:02;5.47;;;1.00;;
53293;SDS011;39181;53.440;5.644;2023-03-26T19:01:56;11.98;;;0.77;;
53293;SDS011;39181;53.440;5.644;2023-03-26T19:04:24;6.45;;;1.00;;
53293;SDS011;39181;53.440;5.644;2023-03-26T19:06:52;11.20;;;1.17;;
53293;SDS011;39181;53.440;5.644;2023-03-26T19:09:20;17.25;;;1.27;;
53293;SDS011;39181;53.440;5.644;2023-03-26T19:11:47;11.57;;;3.00;;
53293;SDS011;39181;53.440;5.644;2023-03-26T19:14:19;18.48;;;1.95;;
53293;SDS011;39181;53.440;5.644;2023-03-26T19:16:46;11.65;;;2.45;;
53293;SDS011;39181;53.440;5.644;2023-03-26T19:19:20;4.72;;;1.08;;
53293;SDS011;39181;53.440;5.644;2023-03-26T19:21:47;15.60;;;2.00;;
53293;SDS011;39181;53.440;5.644;2023-03-26T19:24:14;16.77;;;1.45;;
53293;SDS011;39181;53.440;5.644;2023-03-26T19:26:42;17.30;;;1.30;;
53293;SDS011;39181;53.440;5.644;2023-03-26T19:29:11;38.78;;;2.60;;
53293;SDS011;39181;53.440;5.644;2023-03-26T19:31:39;13.52;;;1.50;;
53293;SDS011;39181;53.440;5.644;2023-03-26T19:36:48;10.48;;;1.08;;
53293;SDS011;39181;53.440;5.644;2023-03-26T19:39:22;12.00;;;1.08;;
53293;SDS011;39181;53.440;5.644;2023-03-26T19:41:49;9.35;;;1.40;;
53293;SDS011;39181;53.440;5.644;2023-03-26T19:44:26;7.10;;;0.60;;
53293;SDS011;39181;53.440;5.644;2023-03-26T19:47:00;11.50;;;1.63;;
53293;SDS011;39181;53.440;5.644;2023-03-26T19:49:31;8.90;;;1.33;;
53293;SDS011;39181;53.440;5.644;2023-03-26T19:57:18;13.98;;;1.65;;
53293;SDS011;39181;53.440;5.644;2023-03-26T19:59:46;6.72;;;1.42;;
53293;SDS011;39181;53.440;5.644;2023-03-26T20:02:12;7.90;;;1.02;;
53293;SDS011;39181;53.440;5.644;2023-03-26T20:04:39;15.90;;;1.42;;
53293;SDS011;39181;53.440;5.644;2023-03-26T20:07:15;12.32;;;1.15;;
53293;SDS011;39181;53.440;5.644;2023-03-26T20:09:43;9.00;;;1.45;;
53293;SDS011;39181;53.440;5.644;2023-03-26T20:12:09;10.00;;;0.70;;
53293;SDS011;39181;53.440;5.644;2023-03-26T20:14:36;14.30;;;1.38;;
53293;SDS011;39181;53.440;5.644;2023-03-26T20:17:02;9.35;;;1.00;;
53293;SDS011;39181;53.440;5.644;2023-03-26T20:19:28;6.53;;;2.25;;
53293;SDS011;39181;53.440;5.644;2023-03-26T20:21:54;8.27;;;0.82;;
53293;SDS011;39181;53.440;5.644;2023-03-26T20:24:20;11.55;;;0.93;;
53293;SDS011;39181;53.440;5.644;2023-03-26T20:26:48;12.43;;;1.33;;
53293;SDS011;39181;53.440;5.644;2023-03-26T20:29:15;6.50;;;0.90;;
53293;SDS011;39181;53.440;5.644;2023-03-26T20:31:41;10.32;;;0.98;;
53293;SDS011;39181;53.440;5.644;2023-03-26T20:34:18;9.50;;;1.65;;
53293;SDS011;39181;53.440;5.644;2023-03-26T20:36:45;6.88;;;1.17;;
53293;SDS011;39181;53.440;5.644;2023-03-26T20:39:17;9.20;;;1.10;;
53293;SDS011;39181;53.440;5.644;2023-03-26T20:41:44;15.63;;;1.63;;
53293;SDS011;39181;53.440;5.644;2023-03-26T20:44:12;13.48;;;1.08;;